This is the latest recevied weather packets stored in our database for station/object SV9TNF-2. If no packets are shown the sender has not sent any weather packets the latest 10 day(s).
| Time | Temp. | Humidity | Pressure | Rain* | Wind** | Luminosity | Snow |
|---|---|---|---|---|---|---|---|
| 1777987202 | 25.56° C | 25% | 1023.4 hPa | 0 mm | 0.45 m/s, 232° | - | - |
| 1777986902 | 25° C | 25% | 1023.4 hPa | 0 mm | 1.34 m/s, 337° | - | - |
| 1777986602 | 25.56° C | 26% | 1023.4 hPa | 0 mm | 3.58 m/s, 40° | - | - |
| 1777986302 | 24.44° C | 24% | 1023.4 hPa | 0 mm | 1.79 m/s, 358° | - | - |
| 1777986001 | 26.67° C | 21% | 1023.4 hPa | 0 mm | 0.89 m/s, 332° | - | - |
| 1777985701 | 26.67° C | 19% | 1023.4 hPa | 0 mm | 2.68 m/s, 266° | - | - |
| 1777985402 | 25.56° C | 22% | 1023.4 hPa | 0 mm | 4.47 m/s, 52° | - | - |
| 1777985101 | 25.56° C | 26% | 1023.4 hPa | 0 mm | 0.45 m/s, 116° | - | - |
| 1777984801 | 24.44° C | 25% | 1023.4 hPa | 0 mm | 3.58 m/s, 300° | - | - |
| 1777984501 | 23.33° C | 25% | 1023.7 hPa | 0 mm | 5.81 m/s, 339° | - | - |
| 1777984201 | 25° C | 29% | 1023.7 hPa | 0 mm | 1.79 m/s, 248° | - | - |
| 1777983901 | 23.33° C | 34% | 1023.7 hPa | 0 mm | 1.34 m/s, 266° | - | - |
| 1777983601 | 23.33° C | 32% | 1023.7 hPa | 0 mm | 3.58 m/s, 347° | - | - |
| 1777983301 | 23.33° C | 36% | 1023.7 hPa | 0 mm | 5.36 m/s, 354° | - | - |
| 1777983000 | 23.89° C | 38% | 1023.7 hPa | 0 mm | 2.68 m/s, 95° | - | - |
| 1777982700 | 23.89° C | 33% | 1023.7 hPa | 0 mm | 0.89 m/s, 117° | - | - |
| 1777982400 | 22.22° C | 34% | 1023.7 hPa | 0 mm | 5.81 m/s, 4° | - | - |
| 1777982100 | 22.78° C | 28% | 1023.7 hPa | 0 mm | 5.36 m/s, 22° | - | - |
| 1777981800 | 23.33° C | 28% | 1023.7 hPa | 0 mm | 7.15 m/s, 23° | - | - |
| 1777981500 | 25° C | 23% | 1023.7 hPa | 0 mm | 2.68 m/s, 26° | - | - |
| 1777981384 | 25° C | 24% | 1023.7 hPa | 0 mm | 0.45 m/s, 328° | - | - |
| 1777981084 | 25.56° C | 22% | 1023.7 hPa | 0 mm | 2.24 m/s, 17° | - | - |
| 1777980783 | 25.56° C | 23% | 1024.4 hPa | 0 mm | 4.92 m/s, 284° | - | - |
| 1777980483 | 24.44° C | 24% | 1024.4 hPa | 0 mm | 4.92 m/s, 9° | - | - |
| 1777980183 | 26.11° C | 24% | 1023.7 hPa | 0 mm | 2.68 m/s, 258° | - | - |
* Rain latest hour (hover to see other rain measurements)
** Current wind speed in m/s (hover to see current wind gust speed)